sensor_id;sensor_type;location;lat;lon;timestamp;pressure;altitude;pressure_sealevel;temperature;humidity
61682;BME280;47577;43.610;25.010;2023-09-19T00:01:15;100783.78;;;14.21;83.55
61682;BME280;47577;43.610;25.010;2023-09-19T00:03:40;100794.22;;;14.27;83.96
61682;BME280;47577;43.610;25.010;2023-09-19T00:06:07;100795.38;;;14.20;85.01
61682;BME280;47577;43.610;25.010;2023-09-19T00:08:33;100790.94;;;14.21;85.52
61682;BME280;47577;43.610;25.010;2023-09-19T00:10:59;100769.41;;;14.24;84.23
61682;BME280;47577;43.610;25.010;2023-09-19T00:13:32;100777.13;;;14.30;83.04
61682;BME280;47577;43.610;25.010;2023-09-19T00:15:59;100780.03;;;14.25;82.81
61682;BME280;47577;43.610;25.010;2023-09-19T00:18:25;100771.78;;;14.30;82.58
61682;BME280;47577;43.610;25.010;2023-09-19T00:20:58;100773.94;;;14.22;84.61
61682;BME280;47577;43.610;25.010;2023-09-19T00:23:24;100774.53;;;14.08;84.05
61682;BME280;47577;43.610;25.010;2023-09-19T00:25:50;100770.84;;;14.11;84.33
61682;BME280;47577;43.610;25.010;2023-09-19T00:28:17;100752.19;;;14.09;85.33
61682;BME280;47577;43.610;25.010;2023-09-19T00:30:45;100761.00;;;13.90;84.36
61682;BME280;47577;43.610;25.010;2023-09-19T00:33:15;100758.47;;;13.87;86.14
61682;BME280;47577;43.610;25.010;2023-09-19T00:35:51;100760.09;;;13.92;86.91
61682;BME280;47577;43.610;25.010;2023-09-19T00:38:18;100758.09;;;13.97;85.33
61682;BME280;47577;43.610;25.010;2023-09-19T00:40:47;100757.13;;;13.98;86.40
61682;BME280;47577;43.610;25.010;2023-09-19T00:43:13;100763.19;;;14.03;85.41
61682;BME280;47577;43.610;25.010;2023-09-19T00:45:43;100759.03;;;14.16;84.46
61682;BME280;47577;43.610;25.010;2023-09-19T00:48:09;100748.47;;;14.13;84.75
61682;BME280;47577;43.610;25.010;2023-09-19T00:50:35;100762.50;;;14.18;84.66
61682;BME280;47577;43.610;25.010;2023-09-19T00:53:02;100758.91;;;14.19;84.48
61682;BME280;47577;43.610;25.010;2023-09-19T00:55:39;100763.53;;;14.16;83.51
61682;BME280;47577;43.610;25.010;2023-09-19T00:58:06;100761.84;;;14.13;84.28
61682;BME280;47577;43.610;25.010;2023-09-19T01:00:33;100758.31;;;14.13;83.33
61682;BME280;47577;43.610;25.010;2023-09-19T01:03:02;100760.69;;;13.98;84.53
61682;BME280;47577;43.610;25.010;2023-09-19T01:05:28;100762.63;;;13.95;84.71
61682;BME280;47577;43.610;25.010;2023-09-19T01:07:55;100757.91;;;14.01;86.31
61682;BME280;47577;43.610;25.010;2023-09-19T01:10:21;100760.28;;;14.07;85.89
61682;BME280;47577;43.610;25.010;2023-09-19T01:13:21;100767.03;;;13.96;85.14
61682;BME280;47577;43.610;25.010;2023-09-19T01:15:57;100768.03;;;13.93;87.03
61682;BME280;47577;43.610;25.010;2023-09-19T01:18:47;100766.03;;;13.98;85.60
61682;BME280;47577;43.610;25.010;2023-09-19T01:27:27;100749.22;;;13.74;86.40
61682;BME280;47577;43.610;25.010;2023-09-19T01:30:10;100750.09;;;13.75;85.84
61682;BME280;47577;43.610;25.010;2023-09-19T01:32:37;100750.31;;;13.68;88.30
61682;BME280;47577;43.610;25.010;2023-09-19T01:35:04;100743.31;;;13.44;87.65
61682;BME280;47577;43.610;25.010;2023-09-19T01:37:30;100740.97;;;13.58;86.71
61682;BME280;47577;43.610;25.010;2023-09-19T01:40:06;100737.75;;;13.50;88.22
61682;BME280;47577;43.610;25.010;2023-09-19T01:47:50;100749.72;;;13.62;86.31
61682;BME280;47577;43.610;25.010;2023-09-19T01:53:10;100748.66;;;13.44;86.56
61682;BME280;47577;43.610;25.010;2023-09-19T01:55:45;100744.44;;;13.38;87.40
61682;BME280;47577;43.610;25.010;2023-09-19T02:01:26;100750.03;;;13.54;86.73
61682;BME280;47577;43.610;25.010;2023-09-19T02:03:52;100752.97;;;13.48;86.80
61682;BME280;47577;43.610;25.010;2023-09-19T02:06:19;100747.81;;;13.20;87.71
61682;BME280;47577;43.610;25.010;2023-09-19T02:08:45;100751.81;;;13.31;86.48
61682;BME280;47577;43.610;25.010;2023-09-19T02:11:11;100748.09;;;13.35;86.77
61682;BME280;47577;43.610;25.010;2023-09-19T02:13:38;100744.63;;;13.33;85.86
61682;BME280;47577;43.610;25.010;2023-09-19T02:16:04;100743.19;;;13.23;88.27
61682;BME280;47577;43.610;25.010;2023-09-19T02:18:30;100755.34;;;13.32;86.69
61682;BME280;47577;43.610;25.010;2023-09-19T02:20:57;100748.44;;;13.26;88.22
61682;BME280;47577;43.610;25.010;2023-09-19T02:23:24;100752.72;;;13.30;86.68
61682;BME280;47577;43.610;25.010;2023-09-19T02:25:54;100751.09;;;13.26;87.43
61682;BME280;47577;43.610;25.010;2023-09-19T02:28:20;100749.44;;;13.24;87.49
61682;BME280;47577;43.610;25.010;2023-09-19T02:30:49;100751.03;;;13.28;86.82
61682;BME280;47577;43.610;25.010;2023-09-19T02:33:16;100748.03;;;13.37;87.68
61682;BME280;47577;43.610;25.010;2023-09-19T02:35:43;100743.91;;;13.28;86.88
61682;BME280;47577;43.610;25.010;2023-09-19T02:38:08;100752.84;;;13.27;86.18
61682;BME280;47577;43.610;25.010;2023-09-19T02:40:37;100744.97;;;13.24;87.30
61682;BME280;47577;43.610;25.010;2023-09-19T02:43:03;100755.34;;;13.32;87.04
61682;BME280;47577;43.610;25.010;2023-09-19T02:45:28;100745.63;;;13.29;87.45
61682;BME280;47577;43.610;25.010;2023-09-19T02:47:55;100740.84;;;13.39;88.48
61682;BME280;47577;43.610;25.010;2023-09-19T02:50:21;100742.81;;;13.34;87.83
61682;BME280;47577;43.610;25.010;2023-09-19T02:52:47;100735.59;;;13.36;88.73
61682;BME280;47577;43.610;25.010;2023-09-19T02:55:18;100740.47;;;13.48;88.46
61682;BME280;47577;43.610;25.010;2023-09-19T02:57:54;100747.34;;;13.54;88.37
61682;BME280;47577;43.610;25.010;2023-09-19T03:00:23;100743.09;;;13.50;88.67
61682;BME280;47577;43.610;25.010;2023-09-19T03:02:58;100739.78;;;13.43;87.02
61682;BME280;47577;43.610;25.010;2023-09-19T03:05:25;100729.91;;;13.22;89.04
61682;BME280;47577;43.610;25.010;2023-09-19T03:07:52;100731.38;;;13.30;89.11
61682;BME280;47577;43.610;25.010;2023-09-19T03:10:18;100733.59;;;13.43;87.13
61682;BME280;47577;43.610;25.010;2023-09-19T03:12:45;100722.69;;;13.47;85.51
61682;BME280;47577;43.610;25.010;2023-09-19T03:15:11;100713.94;;;13.44;85.38
61682;BME280;47577;43.610;25.010;2023-09-19T03:17:36;100720.06;;;13.24;90.49
61682;BME280;47577;43.610;25.010;2023-09-19T03:20:03;100703.91;;;13.27;89.11
61682;BME280;47577;43.610;25.010;2023-09-19T03:22:34;100709.16;;;13.30;88.35
61682;BME280;47577;43.610;25.010;2023-09-19T03:25:00;100711.56;;;13.36;87.87
61682;BME280;47577;43.610;25.010;2023-09-19T03:27:26;100708.16;;;13.32;87.17
61682;BME280;47577;43.610;25.010;2023-09-19T03:29:52;100713.31;;;13.37;85.63
61682;BME280;47577;43.610;25.010;2023-09-19T03:32:19;100720.97;;;13.23;86.74
61682;BME280;47577;43.610;25.010;2023-09-19T03:34:44;100719.38;;;13.19;87.09
61682;BME280;47577;43.610;25.010;2023-09-19T03:37:10;100724.50;;;13.23;87.52
61682;BME280;47577;43.610;25.010;2023-09-19T03:39:36;100717.81;;;13.13;87.10
61682;BME280;47577;43.610;25.010;2023-09-19T03:42:02;100727.91;;;13.05;89.20
61682;BME280;47577;43.610;25.010;2023-09-19T03:44:32;100726.00;;;13.08;88.55
61682;BME280;47577;43.610;25.010;2023-09-19T03:46:58;100731.91;;;13.16;88.13
61682;BME280;47577;43.610;25.010;2023-09-19T03:49:23;100726.69;;;13.13;86.35
61682;BME280;47577;43.610;25.010;2023-09-19T03:51:49;100726.06;;;13.07;87.82
61682;BME280;47577;43.610;25.010;2023-09-19T03:54:15;100722.81;;;12.98;88.24
61682;BME280;47577;43.610;25.010;2023-09-19T03:56:42;100710.06;;;12.83;87.37
61682;BME280;47577;43.610;25.010;2023-09-19T03:59:09;100709.75;;;12.91;88.69
61682;BME280;47577;43.610;25.010;2023-09-19T04:01:35;100710.41;;;12.97;87.88
61682;BME280;47577;43.610;25.010;2023-09-19T04:04:00;100710.47;;;12.96;88.13
61682;BME280;47577;43.610;25.010;2023-09-19T04:06:36;100719.34;;;12.96;86.96
61682;BME280;47577;43.610;25.010;2023-09-19T04:09:03;100728.94;;;13.01;87.00
61682;BME280;47577;43.610;25.010;2023-09-19T04:11:33;100731.88;;;12.94;86.65
61682;BME280;47577;43.610;25.010;2023-09-19T04:13:59;100734.09;;;12.83;87.91
61682;BME280;47577;43.610;25.010;2023-09-19T04:16:28;100725.72;;;12.69;89.71
61682;BME280;47577;43.610;25.010;2023-09-19T04:18:53;100721.72;;;12.80;89.13
61682;BME280;47577;43.610;25.010;2023-09-19T04:21:19;100737.97;;;12.98;87.81
61682;BME280;47577;43.610;25.010;2023-09-19T04:23:45;100739.16;;;12.89;88.85
61682;BME280;47577;43.610;25.010;2023-09-19T04:26:10;100737.91;;;12.99;87.30
61682;BME280;47577;43.610;25.010;2023-09-19T04:28:36;100752.06;;;13.02;88.79
61682;BME280;47577;43.610;25.010;2023-09-19T04:31:03;100742.75;;;13.12;87.69
61682;BME280;47577;43.610;25.010;2023-09-19T04:33:29;100744.44;;;13.14;89.05
61682;BME280;47577;43.610;25.010;2023-09-19T04:35:55;100738.00;;;13.20;88.77
61682;BME280;47577;43.610;25.010;2023-09-19T04:38:21;100748.09;;;13.35;87.67
61682;BME280;47577;43.610;25.010;2023-09-19T04:40:47;100737.53;;;13.32;88.04
61682;BME280;47577;43.610;25.010;2023-09-19T04:43:13;100739.06;;;13.40;89.21
61682;BME280;47577;43.610;25.010;2023-09-19T04:45:39;100741.69;;;13.62;89.28
61682;BME280;47577;43.610;25.010;2023-09-19T04:48:07;100735.72;;;13.77;88.75
61682;BME280;47577;43.610;25.010;2023-09-19T04:50:36;100742.63;;;13.83;89.08
61682;BME280;47577;43.610;25.010;2023-09-19T04:53:02;100727.00;;;13.94;86.95
61682;BME280;47577;43.610;25.010;2023-09-19T04:55:28;100738.56;;;14.15;86.68
61682;BME280;47577;43.610;25.010;2023-09-19T04:57:55;100739.78;;;14.29;86.46
61682;BME280;47577;43.610;25.010;2023-09-19T05:00:22;100736.03;;;14.53;87.24
61682;BME280;47577;43.610;25.010;2023-09-19T05:02:55;100741.53;;;14.71;86.37
61682;BME280;47577;43.610;25.010;2023-09-19T05:05:24;100731.31;;;14.79;86.13
61682;BME280;47577;43.610;25.010;2023-09-19T05:07:51;100746.97;;;15.07;85.35
61682;BME280;47577;43.610;25.010;2023-09-19T05:10:19;100746.19;;;15.24;85.90
61682;BME280;47577;43.610;25.010;2023-09-19T05:12:45;100751.72;;;15.39;86.46
61682;BME280;47577;43.610;25.010;2023-09-19T05:15:12;100749.09;;;15.56;85.00
61682;BME280;47577;43.610;25.010;2023-09-19T05:17:40;100749.56;;;15.64;86.11
61682;BME280;47577;43.610;25.010;2023-09-19T05:20:06;100754.56;;;15.72;84.79
61682;BME280;47577;43.610;25.010;2023-09-19T05:22:42;100745.94;;;15.84;85.14
61682;BME280;47577;43.610;25.010;2023-09-19T05:25:11;100734.81;;;15.92;86.12
61682;BME280;47577;43.610;25.010;2023-09-19T05:27:43;100743.66;;;16.12;85.58
61682;BME280;47577;43.610;25.010;2023-09-19T05:30:09;100746.66;;;16.23;83.49
61682;BME280;47577;43.610;25.010;2023-09-19T05:32:35;100734.59;;;16.32;83.39
61682;BME280;47577;43.610;25.010;2023-09-19T05:35:00;100728.41;;;16.47;83.53
61682;BME280;47577;43.610;25.010;2023-09-19T05:37:26;100722.63;;;16.55;84.22
61682;BME280;47577;43.610;25.010;2023-09-19T05:39:52;100732.31;;;16.75;83.12
61682;BME280;47577;43.610;25.010;2023-09-19T05:42:19;100723.38;;;16.74;81.48
61682;BME280;47577;43.610;25.010;2023-09-19T05:44:44;100721.00;;;16.86;81.38
61682;BME280;47577;43.610;25.010;2023-09-19T05:47:10;100713.38;;;16.94;81.45
61682;BME280;47577;43.610;25.010;2023-09-19T05:49:36;100720.50;;;17.11;82.05
61682;BME280;47577;43.610;25.010;2023-09-19T05:52:08;100724.56;;;17.18;80.92
61682;BME280;47577;43.610;25.010;2023-09-19T05:54:33;100720.44;;;17.28;80.98
61682;BME280;47577;43.610;25.010;2023-09-19T05:57:03;100708.44;;;17.34;81.15
61682;BME280;47577;43.610;25.010;2023-09-19T05:59:28;100717.53;;;17.47;79.81
61682;BME280;47577;43.610;25.010;2023-09-19T06:01:54;100702.72;;;17.56;79.34
61682;BME280;47577;43.610;25.010;2023-09-19T06:04:20;100704.75;;;17.67;79.17
61682;BME280;47577;43.610;25.010;2023-09-19T06:06:46;100710.00;;;17.84;78.91
61682;BME280;47577;43.610;25.010;2023-09-19T06:09:14;100709.59;;;17.92;79.00
61682;BME280;47577;43.610;25.010;2023-09-19T06:11:43;100707.13;;;18.03;78.15
61682;BME280;47577;43.610;25.010;2023-09-19T06:14:08;100707.53;;;18.12;77.99
61682;BME280;47577;43.610;25.010;2023-09-19T06:16:36;100706.88;;;18.22;77.72
61682;BME280;47577;43.610;25.010;2023-09-19T06:19:03;100717.16;;;18.30;77.98
61682;BME280;47577;43.610;25.010;2023-09-19T06:21:31;100705.34;;;18.33;76.40
61682;BME280;47577;43.610;25.010;2023-09-19T06:23:57;100698.16;;;18.48;79.28
61682;BME280;47577;43.610;25.010;2023-09-19T06:26:23;100703.81;;;18.57;76.84
61682;BME280;47577;43.610;25.010;2023-09-19T06:28:52;100707.28;;;18.74;75.92
61682;BME280;47577;43.610;25.010;2023-09-19T06:31:17;100694.59;;;18.76;77.05
61682;BME280;47577;43.610;25.010;2023-09-19T06:33:43;100688.63;;;18.71;77.36
61682;BME280;47577;43.610;25.010;2023-09-19T06:36:09;100685.25;;;18.81;77.92
61682;BME280;47577;43.610;25.010;2023-09-19T06:38:35;100685.84;;;18.87;76.77
61682;BME280;47577;43.610;25.010;2023-09-19T06:41:02;100688.16;;;18.93;75.93
61682;BME280;47577;43.610;25.010;2023-09-19T06:43:32;100690.16;;;19.04;75.81
61682;BME280;47577;43.610;25.010;2023-09-19T06:45:59;100693.88;;;19.15;75.38
61682;BME280;47577;43.610;25.010;2023-09-19T06:48:26;100682.22;;;19.29;74.44
61682;BME280;47577;43.610;25.010;2023-09-19T06:50:58;100685.06;;;19.41;75.28
61682;BME280;47577;43.610;25.010;2023-09-19T06:53:26;100686.28;;;19.49;73.12
61682;BME280;47577;43.610;25.010;2023-09-19T06:55:52;100682.41;;;19.53;74.70
61682;BME280;47577;43.610;25.010;2023-09-19T06:58:17;100677.69;;;19.57;75.60
61682;BME280;47577;43.610;25.010;2023-09-19T07:00:43;100686.47;;;19.73;75.09
61682;BME280;47577;43.610;25.010;2023-09-19T07:03:10;100686.94;;;19.80;74.62
61682;BME280;47577;43.610;25.010;2023-09-19T07:05:39;100683.19;;;19.83;73.47
61682;BME280;47577;43.610;25.010;2023-09-19T07:08:09;100694.63;;;19.99;74.16
61682;BME280;47577;43.610;25.010;2023-09-19T07:10:38;100687.91;;;19.92;74.95
61682;BME280;47577;43.610;25.010;2023-09-19T07:13:07;100680.50;;;19.96;73.27
61682;BME280;47577;43.610;25.010;2023-09-19T07:15:38;100688.16;;;20.02;73.76
61682;BME280;47577;43.610;25.010;2023-09-19T07:18:12;100683.66;;;20.15;74.31
61682;BME280;47577;43.610;25.010;2023-09-19T07:20:40;100686.34;;;20.15;72.65
61682;BME280;47577;43.610;25.010;2023-09-19T07:23:21;100684.94;;;20.35;74.26
61682;BME280;47577;43.610;25.010;2023-09-19T07:25:48;100678.13;;;20.55;73.00
61682;BME280;47577;43.610;25.010;2023-09-19T07:28:15;100684.41;;;20.43;70.69
61682;BME280;47577;43.610;25.010;2023-09-19T07:30:42;100681.94;;;20.66;72.42
61682;BME280;47577;43.610;25.010;2023-09-19T07:33:08;100669.28;;;20.66;69.84
61682;BME280;47577;43.610;25.010;2023-09-19T07:35:37;100669.19;;;20.68;70.99
61682;BME280;47577;43.610;25.010;2023-09-19T07:38:05;100673.50;;;20.70;72.05
61682;BME280;47577;43.610;25.010;2023-09-19T07:40:31;100671.53;;;20.85;71.31
61682;BME280;47577;43.610;25.010;2023-09-19T07:42:57;100673.09;;;21.00;70.00
61682;BME280;47577;43.610;25.010;2023-09-19T07:45:27;100671.00;;;21.17;68.83
61682;BME280;47577;43.610;25.010;2023-09-19T07:47:55;100672.69;;;21.31;67.08
61682;BME280;47577;43.610;25.010;2023-09-19T07:50:21;100666.31;;;21.32;66.86
61682;BME280;47577;43.610;25.010;2023-09-19T07:52:49;100671.09;;;21.52;66.86
61682;BME280;47577;43.610;25.010;2023-09-19T07:55:18;100669.78;;;21.58;65.78
61682;BME280;47577;43.610;25.010;2023-09-19T07:57:45;100664.91;;;21.75;67.49
61682;BME280;47577;43.610;25.010;2023-09-19T08:00:12;100660.16;;;21.89;64.96
61682;BME280;47577;43.610;25.010;2023-09-19T08:02:41;100673.75;;;22.12;64.13
61682;BME280;47577;43.610;25.010;2023-09-19T08:05:12;100657.75;;;22.09;60.64
61682;BME280;47577;43.610;25.010;2023-09-19T08:07:41;100660.78;;;22.40;64.90
61682;BME280;47577;43.610;25.010;2023-09-19T08:10:08;100654.75;;;22.59;62.00
61682;BME280;47577;43.610;25.010;2023-09-19T08:12:37;100662.75;;;22.83;62.06
61682;BME280;47577;43.610;25.010;2023-09-19T08:15:03;100657.81;;;22.77;58.26
61682;BME280;47577;43.610;25.010;2023-09-19T08:17:33;100655.09;;;22.77;59.03
61682;BME280;47577;43.610;25.010;2023-09-19T08:19:59;100649.06;;;22.85;58.34
61682;BME280;47577;43.610;25.010;2023-09-19T08:22:25;100643.97;;;23.03;57.79
61682;BME280;47577;43.610;25.010;2023-09-19T08:24:52;100647.44;;;23.16;56.29
61682;BME280;47577;43.610;25.010;2023-09-19T08:27:18;100634.81;;;23.38;55.89
61682;BME280;47577;43.610;25.010;2023-09-19T08:29:45;100622.69;;;23.42;55.61
61682;BME280;47577;43.610;25.010;2023-09-19T08:32:11;100635.53;;;23.40;55.92
61682;BME280;47577;43.610;25.010;2023-09-19T08:34:37;100639.25;;;23.60;56.57
61682;BME280;47577;43.610;25.010;2023-09-19T08:37:03;100624.13;;;23.57;56.55
61682;BME280;47577;43.610;25.010;2023-09-19T08:39:30;100629.28;;;23.60;56.41
61682;BME280;47577;43.610;25.010;2023-09-19T08:41:59;100625.94;;;23.57;55.40
61682;BME280;47577;43.610;25.010;2023-09-19T08:44:25;100619.03;;;23.64;55.80
61682;BME280;47577;43.610;25.010;2023-09-19T08:46:55;100614.19;;;23.67;54.11
61682;BME280;47577;43.610;25.010;2023-09-19T08:52:37;100618.25;;;24.15;53.59
61682;BME280;47577;43.610;25.010;2023-09-19T08:55:06;100614.00;;;24.22;53.28
61682;BME280;47577;43.610;25.010;2023-09-19T08:57:36;100604.31;;;24.08;51.73
61682;BME280;47577;43.610;25.010;2023-09-19T09:00:07;100622.88;;;24.03;51.45
61682;BME280;47577;43.610;25.010;2023-09-19T09:02:40;100605.59;;;24.04;47.16
61682;BME280;47577;43.610;25.010;2023-09-19T09:05:08;100604.16;;;24.31;46.99
61682;BME280;47577;43.610;25.010;2023-09-19T09:07:39;100614.66;;;24.45;50.16
61682;BME280;47577;43.610;25.010;2023-09-19T09:10:06;100606.09;;;24.50;52.16
61682;BME280;47577;43.610;25.010;2023-09-19T09:12:35;100611.41;;;24.52;49.73
61682;BME280;47577;43.610;25.010;2023-09-19T09:15:04;100607.66;;;24.43;50.00
61682;BME280;47577;43.610;25.010;2023-09-19T09:17:30;100602.66;;;24.48;51.71
61682;BME280;47577;43.610;25.010;2023-09-19T09:19:57;100597.16;;;24.59;49.49
61682;BME280;47577;43.610;25.010;2023-09-19T09:22:22;100608.34;;;24.66;49.78
61682;BME280;47577;43.610;25.010;2023-09-19T09:24:56;100605.34;;;24.69;48.91
61682;BME280;47577;43.610;25.010;2023-09-19T09:27:30;100611.63;;;24.70;50.88
61682;BME280;47577;43.610;25.010;2023-09-19T09:29:57;100609.69;;;24.81;49.88
61682;BME280;47577;43.610;25.010;2023-09-19T09:32:30;100610.22;;;24.66;48.10
61682;BME280;47577;43.610;25.010;2023-09-19T09:35:00;100606.34;;;24.68;49.44
61682;BME280;47577;43.610;25.010;2023-09-19T09:37:27;100606.53;;;24.55;48.24
61682;BME280;47577;43.610;25.010;2023-09-19T09:40:02;100610.16;;;24.56;48.67
61682;BME280;47577;43.610;25.010;2023-09-19T09:42:40;100608.88;;;24.60;49.98
61682;BME280;47577;43.610;25.010;2023-09-19T09:45:16;100607.69;;;24.53;48.94
61682;BME280;47577;43.610;25.010;2023-09-19T09:47:54;100614.94;;;24.42;48.12
61682;BME280;47577;43.610;25.010;2023-09-19T09:50:30;100610.41;;;24.22;48.85
61682;BME280;47577;43.610;25.010;2023-09-19T09:56:08;100614.97;;;24.21;46.62
61682;BME280;47577;43.610;25.010;2023-09-19T10:01:13;100607.63;;;24.64;49.23
61682;BME280;47577;43.610;25.010;2023-09-19T10:03:43;100616.28;;;24.89;50.23
61682;BME280;47577;43.610;25.010;2023-09-19T10:06:14;100606.09;;;24.91;47.58
61682;BME280;47577;43.610;25.010;2023-09-19T10:09:08;100618.56;;;24.84;46.20
61682;BME280;47577;43.610;25.010;2023-09-19T10:11:45;100596.53;;;24.87;46.91
61682;BME280;47577;43.610;25.010;2023-09-19T10:14:13;100612.84;;;24.96;48.59
61682;BME280;47577;43.610;25.010;2023-09-19T10:16:46;100610.84;;;24.98;48.54
61682;BME280;47577;43.610;25.010;2023-09-19T10:19:23;100609.06;;;24.78;44.71
61682;BME280;47577;43.610;25.010;2023-09-19T10:21:50;100611.97;;;24.86;45.88
61682;BME280;47577;43.610;25.010;2023-09-19T10:24:19;100605.53;;;24.87;46.57
61682;BME280;47577;43.610;25.010;2023-09-19T10:26:47;100609.88;;;24.99;47.17
61682;BME280;47577;43.610;25.010;2023-09-19T10:29:17;100604.16;;;25.12;46.88
61682;BME280;47577;43.610;25.010;2023-09-19T10:31:46;100601.91;;;25.27;45.84
61682;BME280;47577;43.610;25.010;2023-09-19T10:34:14;100593.56;;;25.09;42.19
61682;BME280;47577;43.610;25.010;2023-09-19T10:36:46;100598.56;;;25.14;42.46
61682;BME280;47577;43.610;25.010;2023-09-19T10:39:16;100604.19;;;25.32;40.51
61682;BME280;47577;43.610;25.010;2023-09-19T10:41:53;100589.00;;;25.49;35.48
61682;BME280;47577;43.610;25.010;2023-09-19T10:44:25;100581.53;;;25.61;34.93
61682;BME280;47577;43.610;25.010;2023-09-19T10:46:52;100588.38;;;25.94;35.37
61682;BME280;47577;43.610;25.010;2023-09-19T10:49:22;100591.97;;;25.85;31.80
61682;BME280;47577;43.610;25.010;2023-09-19T10:51:53;100582.38;;;26.00;32.72
61682;BME280;47577;43.610;25.010;2023-09-19T10:54:22;100572.88;;;25.95;30.21
61682;BME280;47577;43.610;25.010;2023-09-19T10:56:53;100574.28;;;26.18;31.16
61682;BME280;47577;43.610;25.010;2023-09-19T10:59:19;100573.63;;;26.34;30.22
61682;BME280;47577;43.610;25.010;2023-09-19T11:01:46;100569.13;;;26.15;28.81
61682;BME280;47577;43.610;25.010;2023-09-19T11:04:27;100567.09;;;26.17;30.90
61682;BME280;47577;43.610;25.010;2023-09-19T11:07:06;100564.81;;;26.13;32.35
61682;BME280;47577;43.610;25.010;2023-09-19T11:09:50;100565.44;;;26.06;33.98
61682;BME280;47577;43.610;25.010;2023-09-19T11:14:54;100572.22;;;26.30;34.89
61682;BME280;47577;43.610;25.010;2023-09-19T11:30:44;100560.59;;;26.28;37.55
61682;BME280;47577;43.610;25.010;2023-09-19T11:36:01;100558.81;;;26.74;36.93
61682;BME280;47577;43.610;25.010;2023-09-19T11:43:54;100550.88;;;26.81;35.24
61682;BME280;47577;43.610;25.010;2023-09-19T11:49:33;100537.06;;;26.55;35.67
61682;BME280;47577;43.610;25.010;2023-09-19T11:52:04;100539.66;;;26.56;36.92
61682;BME280;47577;43.610;25.010;2023-09-19T11:54:35;100534.53;;;26.53;36.43
61682;BME280;47577;43.610;25.010;2023-09-19T11:57:03;100543.94;;;26.59;36.80
61682;BME280;47577;43.610;25.010;2023-09-19T11:59:30;100535.69;;;26.51;37.09
61682;BME280;47577;43.610;25.010;2023-09-19T12:02:06;100543.47;;;26.73;36.40
61682;BME280;47577;43.610;25.010;2023-09-19T12:04:41;100537.88;;;26.93;37.47
61682;BME280;47577;43.610;25.010;2023-09-19T12:07:14;100532.25;;;27.12;38.02
61682;BME280;47577;43.610;25.010;2023-09-19T12:10:03;100533.69;;;27.34;36.48
61682;BME280;47577;43.610;25.010;2023-09-19T12:12:30;100505.00;;;27.57;35.54
61682;BME280;47577;43.610;25.010;2023-09-19T12:14:58;100512.94;;;27.68;36.88
61682;BME280;47577;43.610;25.010;2023-09-19T12:17:34;100512.78;;;27.69;35.57
61682;BME280;47577;43.610;25.010;2023-09-19T12:20:01;100500.78;;;27.88;34.21
61682;BME280;47577;43.610;25.010;2023-09-19T12:22:44;100501.69;;;27.97;34.62
61682;BME280;47577;43.610;25.010;2023-09-19T12:25:12;100504.25;;;28.25;34.02
61682;BME280;47577;43.610;25.010;2023-09-19T12:27:48;100502.94;;;28.45;35.32
61682;BME280;47577;43.610;25.010;2023-09-19T12:30:27;100488.50;;;28.70;31.77
61682;BME280;47577;43.610;25.010;2023-09-19T12:32:53;100496.03;;;28.68;32.90
61682;BME280;47577;43.610;25.010;2023-09-19T12:35:29;100487.41;;;28.46;33.50
61682;BME280;47577;43.610;25.010;2023-09-19T12:37:55;100493.88;;;28.45;34.12
61682;BME280;47577;43.610;25.010;2023-09-19T12:40:22;100493.38;;;28.41;31.48
61682;BME280;47577;43.610;25.010;2023-09-19T12:42:53;100493.34;;;28.33;33.24
61682;BME280;47577;43.610;25.010;2023-09-19T12:45:30;100479.34;;;28.36;35.28
61682;BME280;47577;43.610;25.010;2023-09-19T12:51:09;100489.03;;;28.31;32.30
61682;BME280;47577;43.610;25.010;2023-09-19T12:53:44;100487.25;;;28.56;31.98
61682;BME280;47577;43.610;25.010;2023-09-19T12:56:17;100484.25;;;28.67;31.40
61682;BME280;47577;43.610;25.010;2023-09-19T12:58:51;100481.03;;;28.37;31.15
61682;BME280;47577;43.610;25.010;2023-09-19T13:01:19;100493.97;;;28.19;31.62
61682;BME280;47577;43.610;25.010;2023-09-19T13:03:45;100490.31;;;28.10;31.93
61682;BME280;47577;43.610;25.010;2023-09-19T13:06:11;100489.00;;;27.88;30.68
61682;BME280;47577;43.610;25.010;2023-09-19T13:08:38;100492.38;;;27.56;33.98
61682;BME280;47577;43.610;25.010;2023-09-19T13:11:08;100487.81;;;27.38;33.23
61682;BME280;47577;43.610;25.010;2023-09-19T13:13:51;100486.81;;;27.39;33.41
61682;BME280;47577;43.610;25.010;2023-09-19T13:17:02;100480.59;;;27.55;32.95
61682;BME280;47577;43.610;25.010;2023-09-19T13:19:39;100480.16;;;27.68;32.97
61682;BME280;47577;43.610;25.010;2023-09-19T13:25:15;100467.41;;;27.50;30.90
61682;BME280;47577;43.610;25.010;2023-09-19T13:27:51;100461.59;;;27.45;33.78
61682;BME280;47577;43.610;25.010;2023-09-19T13:30:18;100456.94;;;27.38;32.82
61682;BME280;47577;43.610;25.010;2023-09-19T13:32:44;100462.63;;;27.44;33.17
61682;BME280;47577;43.610;25.010;2023-09-19T13:35:12;100463.09;;;27.40;32.11
61682;BME280;47577;43.610;25.010;2023-09-19T13:37:39;100457.81;;;27.38;32.61
61682;BME280;47577;43.610;25.010;2023-09-19T13:40:09;100461.53;;;27.37;31.89
61682;BME280;47577;43.610;25.010;2023-09-19T13:42:35;100464.19;;;27.29;32.57
61682;BME280;47577;43.610;25.010;2023-09-19T13:45:05;100467.06;;;27.27;35.23
61682;BME280;47577;43.610;25.010;2023-09-19T13:47:31;100455.56;;;27.15;34.71
61682;BME280;47577;43.610;25.010;2023-09-19T13:49:58;100463.69;;;27.07;34.43